sensor_id;sensor_type;location;lat;lon;timestamp;temperature;humidity
70145;DHT22;57510;51.068;3.872;2022-10-13T00:00:46;13.70;98.50
70145;DHT22;57510;51.068;3.872;2022-10-13T00:03:13;13.70;98.50
70145;DHT22;57510;51.068;3.872;2022-10-13T00:05:45;13.70;98.50
70145;DHT22;57510;51.068;3.872;2022-10-13T00:08:13;13.70;98.50
70145;DHT22;57510;51.068;3.872;2022-10-13T00:10:39;13.70;98.40
70145;DHT22;57510;51.068;3.872;2022-10-13T00:13:06;13.80;98.30
70145;DHT22;57510;51.068;3.872;2022-10-13T00:15:32;13.70;98.30
70145;DHT22;57510;51.068;3.872;2022-10-13T00:17:58;13.70;98.20
70145;DHT22;57510;51.068;3.872;2022-10-13T00:20:23;13.70;98.30
70145;DHT22;57510;51.068;3.872;2022-10-13T00:22:49;13.70;98.30
70145;DHT22;57510;51.068;3.872;2022-10-13T00:25:16;13.60;98.30
70145;DHT22;57510;51.068;3.872;2022-10-13T00:27:41;13.60;98.30
70145;DHT22;57510;51.068;3.872;2022-10-13T00:30:07;13.60;98.30
70145;DHT22;57510;51.068;3.872;2022-10-13T00:32:34;13.60;98.20
70145;DHT22;57510;51.068;3.872;2022-10-13T00:34:59;13.60;98.30
70145;DHT22;57510;51.068;3.872;2022-10-13T00:37:25;13.50;98.40
70145;DHT22;57510;51.068;3.872;2022-10-13T00:39:50;13.50;98.50
70145;DHT22;57510;51.068;3.872;2022-10-13T00:42:16;13.50;98.50
70145;DHT22;57510;51.068;3.872;2022-10-13T00:47:48;13.50;98.50
70145;DHT22;57510;51.068;3.872;2022-10-13T00:50:22;13.60;98.50
70145;DHT22;57510;51.068;3.872;2022-10-13T00:52:51;13.60;98.40
70145;DHT22;57510;51.068;3.872;2022-10-13T00:55:21;13.70;98.40
70145;DHT22;57510;51.068;3.872;2022-10-13T00:57:48;13.70;98.30
70145;DHT22;57510;51.068;3.872;2022-10-13T01:00:21;13.70;98.30
70145;DHT22;57510;51.068;3.872;2022-10-13T01:02:47;13.70;98.30
70145;DHT22;57510;51.068;3.872;2022-10-13T01:05:15;13.70;98.30
70145;DHT22;57510;51.068;3.872;2022-10-13T01:07:42;13.70;98.30
70145;DHT22;57510;51.068;3.872;2022-10-13T01:10:13;13.70;98.30
70145;DHT22;57510;51.068;3.872;2022-10-13T01:13:15;13.70;98.30
70145;DHT22;57510;51.068;3.872;2022-10-13T01:16:01;13.70;98.30
70145;DHT22;57510;51.068;3.872;2022-10-13T01:24:27;13.70;98.20
70145;DHT22;57510;51.068;3.872;2022-10-13T01:35:26;13.60;98.30
70145;DHT22;57510;51.068;3.872;2022-10-13T01:41:01;13.70;98.30
70145;DHT22;57510;51.068;3.872;2022-10-13T01:43:43;13.70;98.30
70145;DHT22;57510;51.068;3.872;2022-10-13T01:46:21;13.70;98.40
70145;DHT22;57510;51.068;3.872;2022-10-13T01:48:52;13.70;98.40
70145;DHT22;57510;51.068;3.872;2022-10-13T01:51:21;13.70;98.40
70145;DHT22;57510;51.068;3.872;2022-10-13T01:53:48;13.70;98.40
70145;DHT22;57510;51.068;3.872;2022-10-13T01:56:15;13.70;98.40
70145;DHT22;57510;51.068;3.872;2022-10-13T01:58:40;13.60;98.40
70145;DHT22;57510;51.068;3.872;2022-10-13T02:06:27;13.50;98.40
70145;DHT22;57510;51.068;3.872;2022-10-13T02:09:07;13.60;98.40
70145;DHT22;57510;51.068;3.872;2022-10-13T02:11:35;13.70;98.40
70145;DHT22;57510;51.068;3.872;2022-10-13T02:14:12;13.70;98.30
70145;DHT22;57510;51.068;3.872;2022-10-13T02:16:42;13.60;98.40
70145;DHT22;57510;51.068;3.872;2022-10-13T02:19:11;13.60;98.40
70145;DHT22;57510;51.068;3.872;2022-10-13T02:21:38;13.60;98.40
70145;DHT22;57510;51.068;3.872;2022-10-13T02:24:04;13.60;98.50
70145;DHT22;57510;51.068;3.872;2022-10-13T02:26:32;13.60;98.50
70145;DHT22;57510;51.068;3.872;2022-10-13T02:28:59;13.60;98.40
70145;DHT22;57510;51.068;3.872;2022-10-13T02:31:31;13.70;98.40
70145;DHT22;57510;51.068;3.872;2022-10-13T02:33:57;13.60;98.40
70145;DHT22;57510;51.068;3.872;2022-10-13T02:36:22;13.70;98.40
70145;DHT22;57510;51.068;3.872;2022-10-13T02:38:48;13.70;98.40
70145;DHT22;57510;51.068;3.872;2022-10-13T02:41:14;13.70;98.50
70145;DHT22;57510;51.068;3.872;2022-10-13T02:43:39;13.70;98.50
70145;DHT22;57510;51.068;3.872;2022-10-13T02:46:05;13.70;98.60
70145;DHT22;57510;51.068;3.872;2022-10-13T02:48:31;13.70;98.60
70145;DHT22;57510;51.068;3.872;2022-10-13T02:50:56;13.70;98.60
70145;DHT22;57510;51.068;3.872;2022-10-13T02:53:22;13.70;98.60
70145;DHT22;57510;51.068;3.872;2022-10-13T02:55:48;13.70;98.60
70145;DHT22;57510;51.068;3.872;2022-10-13T02:58:13;13.70;98.60
70145;DHT22;57510;51.068;3.872;2022-10-13T03:00:40;13.70;98.60
70145;DHT22;57510;51.068;3.872;2022-10-13T03:03:06;13.70;98.60
70145;DHT22;57510;51.068;3.872;2022-10-13T03:05:32;13.70;98.70
70145;DHT22;57510;51.068;3.872;2022-10-13T03:07:58;13.70;98.70
70145;DHT22;57510;51.068;3.872;2022-10-13T03:10:23;13.70;98.60
70145;DHT22;57510;51.068;3.872;2022-10-13T03:12:49;13.70;98.70
70145;DHT22;57510;51.068;3.872;2022-10-13T03:15:15;13.70;98.70
70145;DHT22;57510;51.068;3.872;2022-10-13T03:17:41;13.70;98.60
70145;DHT22;57510;51.068;3.872;2022-10-13T03:20:07;13.70;98.70
70145;DHT22;57510;51.068;3.872;2022-10-13T03:22:33;13.70;98.70
70145;DHT22;57510;51.068;3.872;2022-10-13T03:24:59;13.80;98.60
70145;DHT22;57510;51.068;3.872;2022-10-13T03:27:25;13.90;98.50
70145;DHT22;57510;51.068;3.872;2022-10-13T03:29:53;13.90;98.50
70145;DHT22;57510;51.068;3.872;2022-10-13T03:32:19;14.00;98.50
70145;DHT22;57510;51.068;3.872;2022-10-13T03:34:44;14.00;98.40
70145;DHT22;57510;51.068;3.872;2022-10-13T03:37:10;14.00;98.40
70145;DHT22;57510;51.068;3.872;2022-10-13T03:39:36;14.10;98.40
70145;DHT22;57510;51.068;3.872;2022-10-13T03:42:02;14.00;98.50
70145;DHT22;57510;51.068;3.872;2022-10-13T03:44:28;14.00;98.50
70145;DHT22;57510;51.068;3.872;2022-10-13T03:46:54;13.90;98.60
70145;DHT22;57510;51.068;3.872;2022-10-13T03:49:19;14.00;98.70
70145;DHT22;57510;51.068;3.872;2022-10-13T03:51:45;14.00;98.70
70145;DHT22;57510;51.068;3.872;2022-10-13T03:54:11;13.90;98.70
70145;DHT22;57510;51.068;3.872;2022-10-13T03:56:38;13.90;98.80
70145;DHT22;57510;51.068;3.872;2022-10-13T03:59:04;13.90;98.80
70145;DHT22;57510;51.068;3.872;2022-10-13T04:01:31;13.90;98.80
70145;DHT22;57510;51.068;3.872;2022-10-13T04:03:58;13.90;98.90
70145;DHT22;57510;51.068;3.872;2022-10-13T04:06:25;13.90;98.90
70145;DHT22;57510;51.068;3.872;2022-10-13T04:08:54;13.90;98.90
70145;DHT22;57510;51.068;3.872;2022-10-13T04:11:20;13.90;98.80
70145;DHT22;57510;51.068;3.872;2022-10-13T04:13:46;13.90;98.80
70145;DHT22;57510;51.068;3.872;2022-10-13T04:16:20;13.90;99.00
70145;DHT22;57510;51.068;3.872;2022-10-13T04:18:57;13.90;99.00
70145;DHT22;57510;51.068;3.872;2022-10-13T04:21:23;13.90;99.10
70145;DHT22;57510;51.068;3.872;2022-10-13T04:23:50;13.90;99.20
70145;DHT22;57510;51.068;3.872;2022-10-13T04:26:20;13.90;99.20
70145;DHT22;57510;51.068;3.872;2022-10-13T04:28:50;13.90;99.30
70145;DHT22;57510;51.068;3.872;2022-10-13T04:31:17;13.80;99.40
70145;DHT22;57510;51.068;3.872;2022-10-13T04:33:43;13.90;99.40
70145;DHT22;57510;51.068;3.872;2022-10-13T04:36:10;13.80;99.40
70145;DHT22;57510;51.068;3.872;2022-10-13T04:38:37;13.80;99.40
70145;DHT22;57510;51.068;3.872;2022-10-13T04:41:04;13.90;99.40
70145;DHT22;57510;51.068;3.872;2022-10-13T04:43:30;13.80;99.40
70145;DHT22;57510;51.068;3.872;2022-10-13T04:46:09;13.80;99.40
70145;DHT22;57510;51.068;3.872;2022-10-13T04:48:40;13.80;99.50
70145;DHT22;57510;51.068;3.872;2022-10-13T04:51:17;13.70;99.70
70145;DHT22;57510;51.068;3.872;2022-10-13T04:53:44;13.70;99.60
70145;DHT22;57510;51.068;3.872;2022-10-13T04:56:13;13.80;99.60
70145;DHT22;57510;51.068;3.872;2022-10-13T04:58:39;13.80;99.60
70145;DHT22;57510;51.068;3.872;2022-10-13T05:01:10;13.80;99.50
70145;DHT22;57510;51.068;3.872;2022-10-13T05:03:36;13.80;99.40
70145;DHT22;57510;51.068;3.872;2022-10-13T05:06:02;13.90;99.40
70145;DHT22;57510;51.068;3.872;2022-10-13T05:08:28;14.00;99.30
70145;DHT22;57510;51.068;3.872;2022-10-13T05:10:55;13.90;99.30
70145;DHT22;57510;51.068;3.872;2022-10-13T05:13:23;13.90;99.20
70145;DHT22;57510;51.068;3.872;2022-10-13T05:15:49;13.80;99.50
70145;DHT22;57510;51.068;3.872;2022-10-13T05:18:15;13.90;99.30
70145;DHT22;57510;51.068;3.872;2022-10-13T05:20:41;14.00;99.10
70145;DHT22;57510;51.068;3.872;2022-10-13T05:23:07;13.90;99.10
70145;DHT22;57510;51.068;3.872;2022-10-13T05:25:33;13.90;99.10
70145;DHT22;57510;51.068;3.872;2022-10-13T05:27:59;14.00;99.00
70145;DHT22;57510;51.068;3.872;2022-10-13T05:30:24;13.90;99.10
70145;DHT22;57510;51.068;3.872;2022-10-13T05:32:50;13.90;99.10
70145;DHT22;57510;51.068;3.872;2022-10-13T05:35:16;13.80;99.10
70145;DHT22;57510;51.068;3.872;2022-10-13T05:37:45;13.90;99.10
70145;DHT22;57510;51.068;3.872;2022-10-13T05:40:10;13.90;99.00
70145;DHT22;57510;51.068;3.872;2022-10-13T05:42:37;13.90;99.00
70145;DHT22;57510;51.068;3.872;2022-10-13T05:45:03;13.80;99.00
70145;DHT22;57510;51.068;3.872;2022-10-13T05:47:29;13.90;99.00
70145;DHT22;57510;51.068;3.872;2022-10-13T05:49:55;13.90;99.00
70145;DHT22;57510;51.068;3.872;2022-10-13T05:52:22;13.90;99.00
70145;DHT22;57510;51.068;3.872;2022-10-13T05:54:52;13.90;99.00
70145;DHT22;57510;51.068;3.872;2022-10-13T05:57:24;13.90;99.00
70145;DHT22;57510;51.068;3.872;2022-10-13T06:00:01;13.80;99.10
70145;DHT22;57510;51.068;3.872;2022-10-13T06:02:31;13.90;99.10
70145;DHT22;57510;51.068;3.872;2022-10-13T06:05:00;13.90;99.00
70145;DHT22;57510;51.068;3.872;2022-10-13T06:07:28;13.80;99.00
70145;DHT22;57510;51.068;3.872;2022-10-13T06:09:55;13.90;99.00
70145;DHT22;57510;51.068;3.872;2022-10-13T06:12:22;13.90;99.00
70145;DHT22;57510;51.068;3.872;2022-10-13T06:14:50;13.90;98.90
70145;DHT22;57510;51.068;3.872;2022-10-13T06:17:16;13.90;99.00
70145;DHT22;57510;51.068;3.872;2022-10-13T06:19:41;13.90;99.10
70145;DHT22;57510;51.068;3.872;2022-10-13T06:22:07;13.80;99.00
70145;DHT22;57510;51.068;3.872;2022-10-13T06:24:33;13.80;99.00
70145;DHT22;57510;51.068;3.872;2022-10-13T06:27:00;13.80;99.10
70145;DHT22;57510;51.068;3.872;2022-10-13T06:29:26;13.80;99.10
70145;DHT22;57510;51.068;3.872;2022-10-13T06:31:51;13.80;99.00
70145;DHT22;57510;51.068;3.872;2022-10-13T06:34:17;13.80;99.10
70145;DHT22;57510;51.068;3.872;2022-10-13T06:36:43;13.80;99.10
70145;DHT22;57510;51.068;3.872;2022-10-13T06:39:09;13.70;99.10
70145;DHT22;57510;51.068;3.872;2022-10-13T06:41:35;13.70;99.10
70145;DHT22;57510;51.068;3.872;2022-10-13T06:44:01;13.70;99.10
70145;DHT22;57510;51.068;3.872;2022-10-13T06:46:27;13.70;99.20
70145;DHT22;57510;51.068;3.872;2022-10-13T06:48:52;13.70;99.20
70145;DHT22;57510;51.068;3.872;2022-10-13T06:51:18;13.70;99.10
70145;DHT22;57510;51.068;3.872;2022-10-13T06:53:44;13.70;99.20
70145;DHT22;57510;51.068;3.872;2022-10-13T06:56:10;13.60;99.20
70145;DHT22;57510;51.068;3.872;2022-10-13T06:58:37;13.60;99.20
70145;DHT22;57510;51.068;3.872;2022-10-13T07:01:04;13.60;99.30
70145;DHT22;57510;51.068;3.872;2022-10-13T07:03:31;13.50;99.20
70145;DHT22;57510;51.068;3.872;2022-10-13T07:06:04;13.60;99.30
70145;DHT22;57510;51.068;3.872;2022-10-13T07:08:31;13.60;99.20
70145;DHT22;57510;51.068;3.872;2022-10-13T07:10:57;13.80;99.10
70145;DHT22;57510;51.068;3.872;2022-10-13T07:13:23;13.80;98.90
70145;DHT22;57510;51.068;3.872;2022-10-13T07:15:48;13.80;98.90
70145;DHT22;57510;51.068;3.872;2022-10-13T07:18:14;13.90;98.80
70145;DHT22;57510;51.068;3.872;2022-10-13T07:20:40;14.00;98.70
70145;DHT22;57510;51.068;3.872;2022-10-13T07:23:06;14.00;98.60
70145;DHT22;57510;51.068;3.872;2022-10-13T07:25:31;14.10;98.50
70145;DHT22;57510;51.068;3.872;2022-10-13T07:27:58;14.20;98.40
70145;DHT22;57510;51.068;3.872;2022-10-13T07:30:24;14.40;98.30
70145;DHT22;57510;51.068;3.872;2022-10-13T07:32:50;14.40;98.10
70145;DHT22;57510;51.068;3.872;2022-10-13T07:35:16;14.50;98.10
70145;DHT22;57510;51.068;3.872;2022-10-13T07:37:42;14.50;97.80
70145;DHT22;57510;51.068;3.872;2022-10-13T07:40:08;14.60;97.80
70145;DHT22;57510;51.068;3.872;2022-10-13T07:42:34;14.60;97.80
70145;DHT22;57510;51.068;3.872;2022-10-13T07:45:00;14.50;97.80
70145;DHT22;57510;51.068;3.872;2022-10-13T07:47:26;14.50;97.80
70145;DHT22;57510;51.068;3.872;2022-10-13T07:49:52;14.50;97.70
70145;DHT22;57510;51.068;3.872;2022-10-13T07:52:19;14.60;97.70
70145;DHT22;57510;51.068;3.872;2022-10-13T07:54:44;14.70;97.70
70145;DHT22;57510;51.068;3.872;2022-10-13T07:57:10;14.70;97.60
70145;DHT22;57510;51.068;3.872;2022-10-13T07:59:36;14.70;97.60
70145;DHT22;57510;51.068;3.872;2022-10-13T08:02:01;14.90;97.50
70145;DHT22;57510;51.068;3.872;2022-10-13T08:04:34;14.90;97.30
70145;DHT22;57510;51.068;3.872;2022-10-13T08:07:00;14.90;97.20
70145;DHT22;57510;51.068;3.872;2022-10-13T08:09:26;14.90;97.30
70145;DHT22;57510;51.068;3.872;2022-10-13T08:11:52;15.00;97.20
70145;DHT22;57510;51.068;3.872;2022-10-13T08:14:18;15.00;97.10
70145;DHT22;57510;51.068;3.872;2022-10-13T08:16:44;15.00;97.10
70145;DHT22;57510;51.068;3.872;2022-10-13T08:19:15;15.20;97.10
70145;DHT22;57510;51.068;3.872;2022-10-13T08:21:40;15.10;97.00
70145;DHT22;57510;51.068;3.872;2022-10-13T08:24:10;15.00;96.90
70145;DHT22;57510;51.068;3.872;2022-10-13T08:26:40;15.10;96.90
70145;DHT22;57510;51.068;3.872;2022-10-13T08:29:06;15.00;96.80
70145;DHT22;57510;51.068;3.872;2022-10-13T08:31:31;15.10;97.00
70145;DHT22;57510;51.068;3.872;2022-10-13T08:33:57;15.30;96.80
70145;DHT22;57510;51.068;3.872;2022-10-13T08:36:23;15.50;96.60
70145;DHT22;57510;51.068;3.872;2022-10-13T08:38:49;15.50;96.30
70145;DHT22;57510;51.068;3.872;2022-10-13T08:41:20;15.40;96.50
70145;DHT22;57510;51.068;3.872;2022-10-13T08:44:05;15.40;96.30
70145;DHT22;57510;51.068;3.872;2022-10-13T08:46:48;15.40;96.40
70145;DHT22;57510;51.068;3.872;2022-10-13T08:49:15;15.50;96.40
70145;DHT22;57510;51.068;3.872;2022-10-13T08:51:42;15.70;96.20
70145;DHT22;57510;51.068;3.872;2022-10-13T08:54:14;15.80;96.00
70145;DHT22;57510;51.068;3.872;2022-10-13T08:56:41;15.80;95.60
70145;DHT22;57510;51.068;3.872;2022-10-13T08:59:14;16.00;95.40
70145;DHT22;57510;51.068;3.872;2022-10-13T09:01:41;16.10;95.20
70145;DHT22;57510;51.068;3.872;2022-10-13T09:04:33;16.10;95.00
70145;DHT22;57510;51.068;3.872;2022-10-13T09:09:49;16.00;95.00
70145;DHT22;57510;51.068;3.872;2022-10-13T09:12:16;16.00;94.80
70145;DHT22;57510;51.068;3.872;2022-10-13T09:14:59;16.10;95.00
70145;DHT22;57510;51.068;3.872;2022-10-13T09:17:27;16.20;94.80
70145;DHT22;57510;51.068;3.872;2022-10-13T09:20:20;16.10;94.80
70145;DHT22;57510;51.068;3.872;2022-10-13T09:23:16;15.90;94.70
70145;DHT22;57510;51.068;3.872;2022-10-13T09:25:50;15.70;95.10
70145;DHT22;57510;51.068;3.872;2022-10-13T09:28:23;15.70;95.30
70145;DHT22;57510;51.068;3.872;2022-10-13T09:31:23;15.90;95.30
70145;DHT22;57510;51.068;3.872;2022-10-13T09:33:59;15.90;95.20
70145;DHT22;57510;51.068;3.872;2022-10-13T09:36:25;16.00;95.00
70145;DHT22;57510;51.068;3.872;2022-10-13T09:39:04;16.10;95.10
70145;DHT22;57510;51.068;3.872;2022-10-13T09:41:31;16.10;95.00
70145;DHT22;57510;51.068;3.872;2022-10-13T09:44:00;16.10;94.90
70145;DHT22;57510;51.068;3.872;2022-10-13T09:46:33;16.10;94.90
70145;DHT22;57510;51.068;3.872;2022-10-13T09:49:05;16.20;95.00
70145;DHT22;57510;51.068;3.872;2022-10-13T09:51:40;16.10;95.10
70145;DHT22;57510;51.068;3.872;2022-10-13T09:54:32;16.20;94.90
70145;DHT22;57510;51.068;3.872;2022-10-13T09:57:03;16.50;94.80
70145;DHT22;57510;51.068;3.872;2022-10-13T09:59:39;16.80;94.30
70145;DHT22;57510;51.068;3.872;2022-10-13T10:02:29;16.90;94.10
70145;DHT22;57510;51.068;3.872;2022-10-13T10:04:59;16.90;94.00
70145;DHT22;57510;51.068;3.872;2022-10-13T10:07:30;16.90;94.10
70145;DHT22;57510;51.068;3.872;2022-10-13T10:10:02;17.00;93.60
70145;DHT22;57510;51.068;3.872;2022-10-13T10:12:31;16.90;93.90
70145;DHT22;57510;51.068;3.872;2022-10-13T10:15:01;16.90;93.80
70145;DHT22;57510;51.068;3.872;2022-10-13T10:17:39;16.80;94.00
70145;DHT22;57510;51.068;3.872;2022-10-13T10:23:00;17.30;93.70
70145;DHT22;57510;51.068;3.872;2022-10-13T10:25:53;17.00;93.80
70145;DHT22;57510;51.068;3.872;2022-10-13T10:31:34;16.90;94.40
70145;DHT22;57510;51.068;3.872;2022-10-13T10:36:40;16.90;94.80
70145;DHT22;57510;51.068;3.872;2022-10-13T10:39:35;17.00;94.70
70145;DHT22;57510;51.068;3.872;2022-10-13T10:44:41;17.00;94.90
70145;DHT22;57510;51.068;3.872;2022-10-13T10:47:22;17.00;95.00
70145;DHT22;57510;51.068;3.872;2022-10-13T10:49:48;16.90;95.20
70145;DHT22;57510;51.068;3.872;2022-10-13T10:52:41;16.90;95.40
70145;DHT22;57510;51.068;3.872;2022-10-13T10:55:24;17.00;95.40
70145;DHT22;57510;51.068;3.872;2022-10-13T10:58:30;16.90;95.10
70145;DHT22;57510;51.068;3.872;2022-10-13T11:01:13;16.60;95.70
70145;DHT22;57510;51.068;3.872;2022-10-13T11:03:49;16.50;96.10
70145;DHT22;57510;51.068;3.872;2022-10-13T11:06:22;16.30;96.30
70145;DHT22;57510;51.068;3.872;2022-10-13T11:08:49;16.50;96.20
70145;DHT22;57510;51.068;3.872;2022-10-13T11:13:52;16.80;96.20
70145;DHT22;57510;51.068;3.872;2022-10-13T11:16:31;17.00;96.10
70145;DHT22;57510;51.068;3.872;2022-10-13T11:19:02;16.80;96.10
70145;DHT22;57510;51.068;3.872;2022-10-13T11:24:49;16.90;96.00
70145;DHT22;57510;51.068;3.872;2022-10-13T11:40:54;16.60;96.30
70145;DHT22;57510;51.068;3.872;2022-10-13T11:55:42;17.40;95.70
70145;DHT22;57510;51.068;3.872;2022-10-13T11:58:24;17.60;95.20
70145;DHT22;57510;51.068;3.872;2022-10-13T12:00:56;17.70;95.30
70145;DHT22;57510;51.068;3.872;2022-10-13T12:03:29;18.00;95.30
70145;DHT22;57510;51.068;3.872;2022-10-13T12:06:02;18.20;94.70
70145;DHT22;57510;51.068;3.872;2022-10-13T12:08:31;18.20;94.50
70145;DHT22;57510;51.068;3.872;2022-10-13T12:10:57;18.50;94.30
70145;DHT22;57510;51.068;3.872;2022-10-13T12:13:28;18.50;94.10
70145;DHT22;57510;51.068;3.872;2022-10-13T12:16:07;18.50;93.80
70145;DHT22;57510;51.068;3.872;2022-10-13T12:18:35;18.60;93.70
70145;DHT22;57510;51.068;3.872;2022-10-13T12:21:14;18.50;93.80
70145;DHT22;57510;51.068;3.872;2022-10-13T12:23:41;18.40;93.60
70145;DHT22;57510;51.068;3.872;2022-10-13T12:26:07;18.30;94.10
70145;DHT22;57510;51.068;3.872;2022-10-13T12:28:58;18.10;94.40
70145;DHT22;57510;51.068;3.872;2022-10-13T12:31:40;18.30;94.10
70145;DHT22;57510;51.068;3.872;2022-10-13T12:34:21;18.30;94.00
70145;DHT22;57510;51.068;3.872;2022-10-13T12:37:03;18.30;94.00
70145;DHT22;57510;51.068;3.872;2022-10-13T12:39:31;18.20;93.70
70145;DHT22;57510;51.068;3.872;2022-10-13T12:41:59;18.10;93.70
70145;DHT22;57510;51.068;3.872;2022-10-13T12:44:30;17.90;94.40
70145;DHT22;57510;51.068;3.872;2022-10-13T12:46:59;18.10;94.00
70145;DHT22;57510;51.068;3.872;2022-10-13T12:49:28;18.10;93.80
70145;DHT22;57510;51.068;3.872;2022-10-13T12:52:03;18.10;93.80
70145;DHT22;57510;51.068;3.872;2022-10-13T12:54:32;18.30;94.30
70145;DHT22;57510;51.068;3.872;2022-10-13T12:57:11;18.50;94.10
70145;DHT22;57510;51.068;3.872;2022-10-13T12:59:41;18.70;93.70
70145;DHT22;57510;51.068;3.872;2022-10-13T13:02:37;18.60;93.50
70145;DHT22;57510;51.068;3.872;2022-10-13T13:07:54;18.20;93.90
70145;DHT22;57510;51.068;3.872;2022-10-13T13:10:19;17.90;94.10
70145;DHT22;57510;51.068;3.872;2022-10-13T13:12:47;17.80;94.30
70145;DHT22;57510;51.068;3.872;2022-10-13T13:18:21;17.50;94.80
70145;DHT22;57510;51.068;3.872;2022-10-13T13:20:48;17.50;95.00
70145;DHT22;57510;51.068;3.872;2022-10-13T13:23:13;17.50;95.10
70145;DHT22;57510;51.068;3.872;2022-10-13T13:25:43;17.70;94.90
70145;DHT22;57510;51.068;3.872;2022-10-13T13:28:09;17.60;94.90
70145;DHT22;57510;51.068;3.872;2022-10-13T13:30:36;17.40;95.20
70145;DHT22;57510;51.068;3.872;2022-10-13T13:33:01;17.30;95.60
70145;DHT22;57510;51.068;3.872;2022-10-13T13:35:27;17.40;95.60
70145;DHT22;57510;51.068;3.872;2022-10-13T13:37:53;17.30;95.80
70145;DHT22;57510;51.068;3.872;2022-10-13T13:40:23;17.10;96.40
70145;DHT22;57510;51.068;3.872;2022-10-13T13:42:49;16.80;97.10
70145;DHT22;57510;51.068;3.872;2022-10-13T13:45:15;16.80;97.20
70145;DHT22;57510;51.068;3.872;2022-10-13T13:47:41;16.80;97.40
70145;DHT22;57510;51.068;3.872;2022-10-13T13:50:26;16.80;97.30
70145;DHT22;57510;51.068;3.872;2022-10-13T13:52:52;16.90;97.40
70145;DHT22;57510;51.068;3.872;2022-10-13T13:55:18;16.80;97.60
70145;DHT22;57510;51.068;3.872;2022-10-13T13:57:44;16.90;97.50
70145;DHT22;57510;51.068;3.872;2022-10-13T14:00:14;17.00;97.50
70145;DHT22;57510;51.068;3.872;2022-10-13T14:02:41;17.10;97.60
70145;DHT22;57510;51.068;3.872;2022-10-13T14:05:08;17.10;97.70
70145;DHT22;57510;51.068;3.872;2022-10-13T14:07:38;17.00;97.80
70145;DHT22;57510;51.068;3.872;2022-10-13T14:10:04;17.10;97.90
70145;DHT22;57510;51.068;3.872;2022-10-13T14:12:31;16.90;98.00
70145;DHT22;57510;51.068;3.872;2022-10-13T14:14:57;16.80;98.20
70145;DHT22;57510;51.068;3.872;2022-10-13T14:17:23;16.80;98.20
70145;DHT22;57510;51.068;3.872;2022-10-13T14:19:49;16.80;98.30
70145;DHT22;57510;51.068;3.872;2022-10-13T14:22:14;16.70;98.40
70145;DHT22;57510;51.068;3.872;2022-10-13T14:24:40;16.80;98.30
70145;DHT22;57510;51.068;3.872;2022-10-13T14:27:05;16.80;98.30
70145;DHT22;57510;51.068;3.872;2022-10-13T14:29:33;16.70;98.40
70145;DHT22;57510;51.068;3.872;2022-10-13T14:31:59;16.80;98.40
70145;DHT22;57510;51.068;3.872;2022-10-13T14:34:24;16.80;98.40
70145;DHT22;57510;51.068;3.872;2022-10-13T14:36:50;16.70;98.40
70145;DHT22;57510;51.068;3.872;2022-10-13T14:39:15;16.70;98.40
70145;DHT22;57510;51.068;3.872;2022-10-13T14:41:41;16.90;98.40
70145;DHT22;57510;51.068;3.872;2022-10-13T14:44:08;16.90;98.40
70145;DHT22;57510;51.068;3.872;2022-10-13T14:46:35;17.00;98.20
70145;DHT22;57510;51.068;3.872;2022-10-13T14:49:00;17.00;98.20
70145;DHT22;57510;51.068;3.872;2022-10-13T14:51:26;17.10;97.90
70145;DHT22;57510;51.068;3.872;2022-10-13T14:53:55;17.10;97.80
70145;DHT22;57510;51.068;3.872;2022-10-13T14:56:22;17.00;97.70
70145;DHT22;57510;51.068;3.872;2022-10-13T14:58:49;17.00;97.60
70145;DHT22;57510;51.068;3.872;2022-10-13T15:01:16;17.00;97.70
70145;DHT22;57510;51.068;3.872;2022-10-13T15:03:44;17.10;97.50
70145;DHT22;57510;51.068;3.872;2022-10-13T15:06:21;17.00;97.70
70145;DHT22;57510;51.068;3.872;2022-10-13T15:08:50;16.90;97.80
70145;DHT22;57510;51.068;3.872;2022-10-13T15:11:17;17.00;97.70
70145;DHT22;57510;51.068;3.872;2022-10-13T15:13:43;17.00;97.70
70145;DHT22;57510;51.068;3.872;2022-10-13T15:16:14;17.00;97.80
70145;DHT22;57510;51.068;3.872;2022-10-13T15:18:40;17.00;97.80
70145;DHT22;57510;51.068;3.872;2022-10-13T15:21:06;16.80;98.10
70145;DHT22;57510;51.068;3.872;2022-10-13T15:23:32;16.80;98.10
70145;DHT22;57510;51.068;3.872;2022-10-13T15:25:58;16.80;98.30
70145;DHT22;57510;51.068;3.872;2022-10-13T15:28:34;16.60;98.50
70145;DHT22;57510;51.068;3.872;2022-10-13T15:31:02;16.70;98.40
70145;DHT22;57510;51.068;3.872;2022-10-13T15:33:29;16.60;98.50
70145;DHT22;57510;51.068;3.872;2022-10-13T15:35:55;16.60;98.60
70145;DHT22;57510;51.068;3.872;2022-10-13T15:38:20;16.60;98.70
70145;DHT22;57510;51.068;3.872;2022-10-13T15:40:47;16.60;98.60
70145;DHT22;57510;51.068;3.872;2022-10-13T15:43:14;16.60;98.60
70145;DHT22;57510;51.068;3.872;2022-10-13T15:45:40;16.60;98.60
70145;DHT22;57510;51.068;3.872;2022-10-13T15:48:06;16.60;98.70
70145;DHT22;57510;51.068;3.872;2022-10-13T15:50:38;16.60;98.70
70145;DHT22;57510;51.068;3.872;2022-10-13T15:53:06;16.50;98.80
70145;DHT22;57510;51.068;3.872;2022-10-13T15:55:32;16.50;98.80
70145;DHT22;57510;51.068;3.872;2022-10-13T15:57:57;16.50;98.90
70145;DHT22;57510;51.068;3.872;2022-10-13T16:00:23;16.40;99.00
70145;DHT22;57510;51.068;3.872;2022-10-13T16:02:50;16.40;99.10
70145;DHT22;57510;51.068;3.872;2022-10-13T16:05:17;16.30;99.20
70145;DHT22;57510;51.068;3.872;2022-10-13T16:07:44;16.30;99.20
70145;DHT22;57510;51.068;3.872;2022-10-13T16:10:12;16.20;99.40
70145;DHT22;57510;51.068;3.872;2022-10-13T16:12:39;16.20;99.60
70145;DHT22;57510;51.068;3.872;2022-10-13T16:15:07;16.00;99.90
70145;DHT22;57510;51.068;3.872;2022-10-13T16:17:33;15.90;99.90
70145;DHT22;57510;51.068;3.872;2022-10-13T16:19:59;15.80;99.90
70145;DHT22;57510;51.068;3.872;2022-10-13T16:22:25;15.70;99.90
70145;DHT22;57510;51.068;3.872;2022-10-13T16:24:50;15.80;99.90
70145;DHT22;57510;51.068;3.872;2022-10-13T16:27:16;15.70;99.90
70145;DHT22;57510;51.068;3.872;2022-10-13T16:29:42;15.70;99.90
70145;DHT22;57510;51.068;3.872;2022-10-13T16:32:07;15.80;99.90
70145;DHT22;57510;51.068;3.872;2022-10-13T16:34:33;15.80;99.90
70145;DHT22;57510;51.068;3.872;2022-10-13T16:36:59;15.80;99.90
70145;DHT22;57510;51.068;3.872;2022-10-13T16:39:24;15.70;99.90
70145;DHT22;57510;51.068;3.872;2022-10-13T16:41:51;15.80;99.90
70145;DHT22;57510;51.068;3.872;2022-10-13T16:44:16;15.70;99.90
70145;DHT22;57510;51.068;3.872;2022-10-13T16:46:43;15.80;99.90
70145;DHT22;57510;51.068;3.872;2022-10-13T16:49:09;15.80;99.90
70145;DHT22;57510;51.068;3.872;2022-10-13T16:51:35;15.90;99.90
70145;DHT22;57510;51.068;3.872;2022-10-13T16:54:02;15.90;99.90
70145;DHT22;57510;51.068;3.872;2022-10-13T16:56:30;15.90;99.90
70145;DHT22;57510;51.068;3.872;2022-10-13T16:58:58;15.90;99.90